sensor_id;sensor_type;location;lat;lon;timestamp;temperature;humidity
23395;DHT22;11870;53.084;18.206;2023-05-08T00:04:14;1.50;99.90
23395;DHT22;11870;53.084;18.206;2023-05-08T00:06:40;1.10;99.90
23395;DHT22;11870;53.084;18.206;2023-05-08T00:09:06;1.10;99.90
23395;DHT22;11870;53.084;18.206;2023-05-08T00:11:32;4.20;99.90
23395;DHT22;11870;53.084;18.206;2023-05-08T00:13:58;1.00;99.90
23395;DHT22;11870;53.084;18.206;2023-05-08T00:16:24;0.90;99.90
23395;DHT22;11870;53.084;18.206;2023-05-08T00:18:50;0.90;99.90
23395;DHT22;11870;53.084;18.206;2023-05-08T00:21:18;3.80;99.90
23395;DHT22;11870;53.084;18.206;2023-05-08T00:23:44;1.90;99.90
23395;DHT22;11870;53.084;18.206;2023-05-08T00:26:10;0.70;99.90
23395;DHT22;11870;53.084;18.206;2023-05-08T00:28:36;4.10;99.90
23395;DHT22;11870;53.084;18.206;2023-05-08T00:36:02;0.80;99.90
23395;DHT22;11870;53.084;18.206;2023-05-08T00:38:32;0.80;99.90
23395;DHT22;11870;53.084;18.206;2023-05-08T00:40:59;0.50;99.90
23395;DHT22;11870;53.084;18.206;2023-05-08T00:45:58;0.70;99.90
23395;DHT22;11870;53.084;18.206;2023-05-08T00:48:27;0.70;99.90
23395;DHT22;11870;53.084;18.206;2023-05-08T00:50:55;2.50;99.90
23395;DHT22;11870;53.084;18.206;2023-05-08T00:53:22;0.50;99.90
23395;DHT22;11870;53.084;18.206;2023-05-08T00:55:50;0.40;99.90
23395;DHT22;11870;53.084;18.206;2023-05-08T00:58:18;0.30;99.90
23395;DHT22;11870;53.084;18.206;2023-05-08T01:00:45;0.40;99.90
23395;DHT22;11870;53.084;18.206;2023-05-08T01:03:12;0.40;99.90
23395;DHT22;11870;53.084;18.206;2023-05-08T01:05:39;0.00;99.90
23395;DHT22;11870;53.084;18.206;2023-05-08T01:08:06;0.10;99.90
23395;DHT22;11870;53.084;18.206;2023-05-08T01:16:16;0.20;99.90
23395;DHT22;11870;53.084;18.206;2023-05-08T01:18:46;0.20;99.90
23395;DHT22;11870;53.084;18.206;2023-05-08T01:27:08;0.10;99.90
23395;DHT22;11870;53.084;18.206;2023-05-08T01:32:27;3.00;99.90
23395;DHT22;11870;53.084;18.206;2023-05-08T01:34:59;0.00;99.90
23395;DHT22;11870;53.084;18.206;2023-05-08T01:37:39;-0.10;99.90
23395;DHT22;11870;53.084;18.206;2023-05-08T01:40:11;-0.10;99.90
23395;DHT22;11870;53.084;18.206;2023-05-08T01:42:47;-0.10;99.90
23395;DHT22;11870;53.084;18.206;2023-05-08T01:45:31;2.90;99.90
23395;DHT22;11870;53.084;18.206;2023-05-08T01:48:12;-0.10;99.90
23395;DHT22;11870;53.084;18.206;2023-05-08T01:50:48;-0.20;99.90
23395;DHT22;11870;53.084;18.206;2023-05-08T01:53:24;-0.20;99.90
23395;DHT22;11870;53.084;18.206;2023-05-08T01:55:56;-0.70;99.90
23395;DHT22;11870;53.084;18.206;2023-05-08T02:00:52;-0.30;99.90
23395;DHT22;11870;53.084;18.206;2023-05-08T02:03:21;2.50;99.90
23395;DHT22;11870;53.084;18.206;2023-05-08T02:05:49;-0.30;99.90
23395;DHT22;11870;53.084;18.206;2023-05-08T02:08:17;-0.40;99.90
23395;DHT22;11870;53.084;18.206;2023-05-08T02:10:47;-0.40;99.90
23395;DHT22;11870;53.084;18.206;2023-05-08T02:15:46;-0.40;99.90
23395;DHT22;11870;53.084;18.206;2023-05-08T02:18:14;-0.70;99.90
23395;DHT22;11870;53.084;18.206;2023-05-08T02:25:36;-0.60;99.90
23395;DHT22;11870;53.084;18.206;2023-05-08T02:28:05;2.10;99.90
23395;DHT22;11870;53.084;18.206;2023-05-08T02:30:32;2.20;99.90
23395;DHT22;11870;53.084;18.206;2023-05-08T02:32:59;-0.60;99.90
23395;DHT22;11870;53.084;18.206;2023-05-08T02:35:26;-0.70;99.90
23395;DHT22;11870;53.084;18.206;2023-05-08T02:37:56;-0.50;99.90
23395;DHT22;11870;53.084;18.206;2023-05-08T02:40:25;-0.70;99.90
23395;DHT22;11870;53.084;18.206;2023-05-08T02:42:52;-0.80;99.90
23395;DHT22;11870;53.084;18.206;2023-05-08T02:45:19;-0.50;99.90
23395;DHT22;11870;53.084;18.206;2023-05-08T02:47:52;0.90;99.90
23395;DHT22;11870;53.084;18.206;2023-05-08T02:50:31;-0.20;99.90
23395;DHT22;11870;53.084;18.206;2023-05-08T02:53:04;-0.30;99.90
23395;DHT22;11870;53.084;18.206;2023-05-08T02:55:51;3.30;99.90
23395;DHT22;11870;53.084;18.206;2023-05-08T02:58:28;-0.10;99.90
23395;DHT22;11870;53.084;18.206;2023-05-08T03:01:01;-0.30;99.90
23395;DHT22;11870;53.084;18.206;2023-05-08T03:03:43;-0.20;99.90
23395;DHT22;11870;53.084;18.206;2023-05-08T03:06:15;2.20;99.90
23395;DHT22;11870;53.084;18.206;2023-05-08T03:08:44;2.50;99.90
23395;DHT22;11870;53.084;18.206;2023-05-08T03:11:15;3.20;99.90
23395;DHT22;11870;53.084;18.206;2023-05-08T03:13:45;0.20;99.90
23395;DHT22;11870;53.084;18.206;2023-05-08T03:16:17;0.60;99.90
23395;DHT22;11870;53.084;18.206;2023-05-08T03:18:51;0.80;99.90
23395;DHT22;11870;53.084;18.206;2023-05-08T03:21:18;0.90;99.90
23395;DHT22;11870;53.084;18.206;2023-05-08T03:23:47;1.00;99.90
23395;DHT22;11870;53.084;18.206;2023-05-08T03:26:17;0.30;99.90
23395;DHT22;11870;53.084;18.206;2023-05-08T03:31:16;1.20;99.90
23395;DHT22;11870;53.084;18.206;2023-05-08T03:33:52;1.10;99.90
23395;DHT22;11870;53.084;18.206;2023-05-08T03:36:18;1.30;99.90
23395;DHT22;11870;53.084;18.206;2023-05-08T03:38:45;1.10;99.90
23395;DHT22;11870;53.084;18.206;2023-05-08T03:41:11;1.10;99.90
23395;DHT22;11870;53.084;18.206;2023-05-08T03:43:38;1.70;99.90
23395;DHT22;11870;53.084;18.206;2023-05-08T03:46:05;5.30;99.90
23395;DHT22;11870;53.084;18.206;2023-05-08T03:51:01;2.10;99.90
23395;DHT22;11870;53.084;18.206;2023-05-08T03:53:29;1.90;99.90
23395;DHT22;11870;53.084;18.206;2023-05-08T03:55:56;1.80;99.90
23395;DHT22;11870;53.084;18.206;2023-05-08T03:58:43;2.40;99.90
23395;DHT22;11870;53.084;18.206;2023-05-08T04:01:31;2.60;99.90
23395;DHT22;11870;53.084;18.206;2023-05-08T04:04:05;2.70;99.90
23395;DHT22;11870;53.084;18.206;2023-05-08T04:07:05;5.80;99.90
23395;DHT22;11870;53.084;18.206;2023-05-08T04:09:42;2.90;99.90
23395;DHT22;11870;53.084;18.206;2023-05-08T04:12:19;3.10;99.90
23395;DHT22;11870;53.084;18.206;2023-05-08T04:15:18;3.30;99.90
23395;DHT22;11870;53.084;18.206;2023-05-08T04:17:48;3.30;99.90
23395;DHT22;11870;53.084;18.206;2023-05-08T04:20:18;3.60;99.90
23395;DHT22;11870;53.084;18.206;2023-05-08T04:22:46;6.50;99.90
23395;DHT22;11870;53.084;18.206;2023-05-08T04:25:15;3.30;99.90
23395;DHT22;11870;53.084;18.206;2023-05-08T04:27:43;4.10;99.90
23395;DHT22;11870;53.084;18.206;2023-05-08T04:30:09;3.90;99.90
23395;DHT22;11870;53.084;18.206;2023-05-08T04:32:36;4.20;99.90
23395;DHT22;11870;53.084;18.206;2023-05-08T04:35:04;4.60;99.90
23395;DHT22;11870;53.084;18.206;2023-05-08T04:39:57;4.90;99.90
23395;DHT22;11870;53.084;18.206;2023-05-08T04:42:23;5.00;99.90
23395;DHT22;11870;53.084;18.206;2023-05-08T04:44:52;5.10;99.90
23395;DHT22;11870;53.084;18.206;2023-05-08T04:47:18;5.40;99.90
23395;DHT22;11870;53.084;18.206;2023-05-08T04:49:44;5.40;99.90
23395;DHT22;11870;53.084;18.206;2023-05-08T04:52:10;8.30;99.90
23395;DHT22;11870;53.084;18.206;2023-05-08T04:54:36;6.10;99.90
23395;DHT22;11870;53.084;18.206;2023-05-08T04:57:03;6.30;99.90
23395;DHT22;11870;53.084;18.206;2023-05-08T04:59:29;6.50;99.90
23395;DHT22;11870;53.084;18.206;2023-05-08T05:01:55;10.10;99.90
23395;DHT22;11870;53.084;18.206;2023-05-08T05:04:22;7.10;99.90
23395;DHT22;11870;53.084;18.206;2023-05-08T05:06:48;7.60;99.90
23395;DHT22;11870;53.084;18.206;2023-05-08T05:09:14;8.10;99.90
23395;DHT22;11870;53.084;18.206;2023-05-08T05:11:40;8.50;99.90
23395;DHT22;11870;53.084;18.206;2023-05-08T05:16:33;9.30;99.90
23395;DHT22;11870;53.084;18.206;2023-05-08T05:18:59;9.80;99.90
23395;DHT22;11870;53.084;18.206;2023-05-08T05:21:24;11.10;99.90
23395;DHT22;11870;53.084;18.206;2023-05-08T05:23:51;11.50;99.90
23395;DHT22;11870;53.084;18.206;2023-05-08T05:26:17;11.40;99.90
23395;DHT22;11870;53.084;18.206;2023-05-08T05:28:43;12.60;99.90
23395;DHT22;11870;53.084;18.206;2023-05-08T05:31:09;16.20;99.90
23395;DHT22;11870;53.084;18.206;2023-05-08T05:33:35;15.40;99.90
23395;DHT22;11870;53.084;18.206;2023-05-08T05:36:01;16.70;99.90
23395;DHT22;11870;53.084;18.206;2023-05-08T05:38:27;18.10;99.80
23395;DHT22;11870;53.084;18.206;2023-05-08T05:40:53;19.90;92.60
23395;DHT22;11870;53.084;18.206;2023-05-08T05:43:19;19.90;75.00
23395;DHT22;11870;53.084;18.206;2023-05-08T05:45:45;21.10;70.90
23395;DHT22;11870;53.084;18.206;2023-05-08T05:48:11;21.30;62.90
23395;DHT22;11870;53.084;18.206;2023-05-08T05:50:37;22.30;57.40
23395;DHT22;11870;53.084;18.206;2023-05-08T05:53:03;23.30;53.30
23395;DHT22;11870;53.084;18.206;2023-05-08T05:55:28;24.10;48.70
23395;DHT22;11870;53.084;18.206;2023-05-08T05:57:54;25.00;44.80
23395;DHT22;11870;53.084;18.206;2023-05-08T06:00:20;25.80;43.60
23395;DHT22;11870;53.084;18.206;2023-05-08T06:02:47;26.90;41.30
23395;DHT22;11870;53.084;18.206;2023-05-08T06:05:13;27.70;37.30
23395;DHT22;11870;53.084;18.206;2023-05-08T06:07:39;28.10;35.10
23395;DHT22;11870;53.084;18.206;2023-05-08T06:10:06;28.80;32.90
23395;DHT22;11870;53.084;18.206;2023-05-08T06:12:32;29.00;31.40
23395;DHT22;11870;53.084;18.206;2023-05-08T06:14:58;29.50;30.90
23395;DHT22;11870;53.084;18.206;2023-05-08T06:17:24;30.40;30.00
23395;DHT22;11870;53.084;18.206;2023-05-08T06:19:53;30.70;28.40
23395;DHT22;11870;53.084;18.206;2023-05-08T06:22:22;30.90;28.00
23395;DHT22;11870;53.084;18.206;2023-05-08T06:24:51;31.30;27.70
23395;DHT22;11870;53.084;18.206;2023-05-08T06:27:19;31.80;26.90
23395;DHT22;11870;53.084;18.206;2023-05-08T06:29:47;32.10;26.30
23395;DHT22;11870;53.084;18.206;2023-05-08T06:32:13;33.00;24.50
23395;DHT22;11870;53.084;18.206;2023-05-08T06:34:39;33.30;24.70
23395;DHT22;11870;53.084;18.206;2023-05-08T06:37:05;34.10;23.10
23395;DHT22;11870;53.084;18.206;2023-05-08T06:39:31;34.30;22.10
23395;DHT22;11870;53.084;18.206;2023-05-08T06:41:57;34.30;21.60
23395;DHT22;11870;53.084;18.206;2023-05-08T06:44:23;34.50;21.00
23395;DHT22;11870;53.084;18.206;2023-05-08T06:46:49;34.80;20.60
23395;DHT22;11870;53.084;18.206;2023-05-08T06:49:14;35.30;19.80
23395;DHT22;11870;53.084;18.206;2023-05-08T06:51:40;35.30;20.50
23395;DHT22;11870;53.084;18.206;2023-05-08T06:54:06;35.40;19.00
23395;DHT22;11870;53.084;18.206;2023-05-08T06:56:33;35.40;19.80
23395;DHT22;11870;53.084;18.206;2023-05-08T06:58:59;35.60;18.70
23395;DHT22;11870;53.084;18.206;2023-05-08T07:01:26;35.50;19.00
23395;DHT22;11870;53.084;18.206;2023-05-08T07:03:52;35.50;18.20
23395;DHT22;11870;53.084;18.206;2023-05-08T07:06:18;35.70;18.10
23395;DHT22;11870;53.084;18.206;2023-05-08T07:08:43;36.30;18.20
23395;DHT22;11870;53.084;18.206;2023-05-08T07:11:09;36.70;17.40
23395;DHT22;11870;53.084;18.206;2023-05-08T07:13:35;37.10;17.70
23395;DHT22;11870;53.084;18.206;2023-05-08T07:16:01;37.20;17.20
23395;DHT22;11870;53.084;18.206;2023-05-08T07:18:29;37.60;17.10
23395;DHT22;11870;53.084;18.206;2023-05-08T07:20:55;37.10;16.80
23395;DHT22;11870;53.084;18.206;2023-05-08T07:23:21;37.00;17.00
23395;DHT22;11870;53.084;18.206;2023-05-08T07:25:47;36.90;17.10
23395;DHT22;11870;53.084;18.206;2023-05-08T07:28:13;37.30;17.30
23395;DHT22;11870;53.084;18.206;2023-05-08T07:30:39;37.90;16.90
23395;DHT22;11870;53.084;18.206;2023-05-08T07:33:05;38.60;16.20
23395;DHT22;11870;53.084;18.206;2023-05-08T07:35:31;38.90;15.90
23395;DHT22;11870;53.084;18.206;2023-05-08T07:37:57;38.80;15.70
23395;DHT22;11870;53.084;18.206;2023-05-08T07:40:23;38.60;16.20
23395;DHT22;11870;53.084;18.206;2023-05-08T07:42:48;39.00;15.90
23395;DHT22;11870;53.084;18.206;2023-05-08T07:45:14;39.40;15.70
23395;DHT22;11870;53.084;18.206;2023-05-08T07:47:54;38.90;15.20
23395;DHT22;11870;53.084;18.206;2023-05-08T07:50:21;38.60;16.00
23395;DHT22;11870;53.084;18.206;2023-05-08T07:52:47;39.00;16.10
23395;DHT22;11870;53.084;18.206;2023-05-08T07:55:14;39.30;14.50
23395;DHT22;11870;53.084;18.206;2023-05-08T07:57:41;39.60;15.10
23395;DHT22;11870;53.084;18.206;2023-05-08T08:00:12;39.00;15.30
23395;DHT22;11870;53.084;18.206;2023-05-08T08:02:38;38.20;16.00
23395;DHT22;11870;53.084;18.206;2023-05-08T08:05:05;38.10;16.60
23395;DHT22;11870;53.084;18.206;2023-05-08T08:07:31;38.30;16.20
23395;DHT22;11870;53.084;18.206;2023-05-08T08:09:58;38.60;15.40
23395;DHT22;11870;53.084;18.206;2023-05-08T08:12:24;38.20;14.90
23395;DHT22;11870;53.084;18.206;2023-05-08T08:14:50;37.70;15.70
23395;DHT22;11870;53.084;18.206;2023-05-08T08:17:16;38.20;14.20
23395;DHT22;11870;53.084;18.206;2023-05-08T08:19:42;37.40;15.00
23395;DHT22;11870;53.084;18.206;2023-05-08T08:22:08;37.60;14.60
23395;DHT22;11870;53.084;18.206;2023-05-08T08:24:34;37.00;15.10
23395;DHT22;11870;53.084;18.206;2023-05-08T08:27:00;36.70;15.30
23395;DHT22;11870;53.084;18.206;2023-05-08T08:29:26;36.60;15.60
23395;DHT22;11870;53.084;18.206;2023-05-08T08:31:53;36.10;15.80
23395;DHT22;11870;53.084;18.206;2023-05-08T08:34:18;36.20;15.90
23395;DHT22;11870;53.084;18.206;2023-05-08T08:36:44;36.60;15.70
23395;DHT22;11870;53.084;18.206;2023-05-08T08:39:10;36.50;16.10
23395;DHT22;11870;53.084;18.206;2023-05-08T08:41:38;36.20;16.10
23395;DHT22;11870;53.084;18.206;2023-05-08T08:44:05;35.70;15.70
23395;DHT22;11870;53.084;18.206;2023-05-08T08:46:31;35.20;17.00
23395;DHT22;11870;53.084;18.206;2023-05-08T08:49:03;35.30;16.90
23395;DHT22;11870;53.084;18.206;2023-05-08T08:52:02;35.90;16.20
23395;DHT22;11870;53.084;18.206;2023-05-08T08:54:32;36.20;15.30
23395;DHT22;11870;53.084;18.206;2023-05-08T08:57:01;35.70;15.00
23395;DHT22;11870;53.084;18.206;2023-05-08T08:59:30;35.20;15.70
23395;DHT22;11870;53.084;18.206;2023-05-08T09:02:00;34.60;16.10
23395;DHT22;11870;53.084;18.206;2023-05-08T09:04:30;34.50;16.20
23395;DHT22;11870;53.084;18.206;2023-05-08T09:06:57;34.50;16.20
23395;DHT22;11870;53.084;18.206;2023-05-08T09:09:24;34.00;16.50
23395;DHT22;11870;53.084;18.206;2023-05-08T09:11:51;34.20;16.00
23395;DHT22;11870;53.084;18.206;2023-05-08T09:14:17;33.80;16.40
23395;DHT22;11870;53.084;18.206;2023-05-08T09:16:44;34.40;16.20
23395;DHT22;11870;53.084;18.206;2023-05-08T09:19:12;34.80;15.40
23395;DHT22;11870;53.084;18.206;2023-05-08T09:21:40;35.30;15.10
23395;DHT22;11870;53.084;18.206;2023-05-08T09:24:06;35.70;14.80
23395;DHT22;11870;53.084;18.206;2023-05-08T09:26:36;36.20;14.10
23395;DHT22;11870;53.084;18.206;2023-05-08T09:29:19;36.80;12.90
23395;DHT22;11870;53.084;18.206;2023-05-08T09:31:48;36.10;12.40
23395;DHT22;11870;53.084;18.206;2023-05-08T09:34:23;33.60;14.70
23395;DHT22;11870;53.084;18.206;2023-05-08T09:36:49;31.70;16.20
23395;DHT22;11870;53.084;18.206;2023-05-08T09:39:21;31.00;17.40
23395;DHT22;11870;53.084;18.206;2023-05-08T09:44:23;31.10;16.30
23395;DHT22;11870;53.084;18.206;2023-05-08T09:46:49;30.50;18.70
23395;DHT22;11870;53.084;18.206;2023-05-08T09:49:16;30.70;18.40
23395;DHT22;11870;53.084;18.206;2023-05-08T09:51:52;30.50;18.00
23395;DHT22;11870;53.084;18.206;2023-05-08T09:54:19;30.90;16.30
23395;DHT22;11870;53.084;18.206;2023-05-08T09:56:45;30.70;15.60
23395;DHT22;11870;53.084;18.206;2023-05-08T09:59:27;29.90;16.70
23395;DHT22;11870;53.084;18.206;2023-05-08T10:01:54;29.70;19.80
23395;DHT22;11870;53.084;18.206;2023-05-08T10:04:34;30.40;19.40
23395;DHT22;11870;53.084;18.206;2023-05-08T10:07:01;31.40;17.90
23395;DHT22;11870;53.084;18.206;2023-05-08T10:09:27;31.40;18.30
23395;DHT22;11870;53.084;18.206;2023-05-08T10:11:53;31.30;17.60
23395;DHT22;11870;53.084;18.206;2023-05-08T10:14:21;31.60;17.90
23395;DHT22;11870;53.084;18.206;2023-05-08T10:16:51;31.50;18.00
23395;DHT22;11870;53.084;18.206;2023-05-08T10:19:21;31.30;18.30
23395;DHT22;11870;53.084;18.206;2023-05-08T10:21:52;31.20;18.40
23395;DHT22;11870;53.084;18.206;2023-05-08T10:27:12;30.20;19.50
23395;DHT22;11870;53.084;18.206;2023-05-08T10:30:02;29.30;19.30
23395;DHT22;11870;53.084;18.206;2023-05-08T10:32:38;28.30;20.70
23395;DHT22;11870;53.084;18.206;2023-05-08T10:35:08;27.30;20.70
23395;DHT22;11870;53.084;18.206;2023-05-08T10:37:35;26.40;21.60
23395;DHT22;11870;53.084;18.206;2023-05-08T10:40:03;25.30;22.30
23395;DHT22;11870;53.084;18.206;2023-05-08T10:42:31;24.40;23.20
23395;DHT22;11870;53.084;18.206;2023-05-08T10:44:58;23.80;23.50
23395;DHT22;11870;53.084;18.206;2023-05-08T10:53:21;22.60;26.20
23395;DHT22;11870;53.084;18.206;2023-05-08T10:55:50;22.60;25.70
23395;DHT22;11870;53.084;18.206;2023-05-08T10:58:34;22.50;25.70
23395;DHT22;11870;53.084;18.206;2023-05-08T11:03:30;22.30;26.60
23395;DHT22;11870;53.084;18.206;2023-05-08T11:05:58;22.10;27.00
23395;DHT22;11870;53.084;18.206;2023-05-08T11:08:28;22.00;27.20
23395;DHT22;11870;53.084;18.206;2023-05-08T11:13:28;22.00;27.10
23395;DHT22;11870;53.084;18.206;2023-05-08T11:15:55;21.60;26.90
23395;DHT22;11870;53.084;18.206;2023-05-08T11:18:21;21.10;27.30
23395;DHT22;11870;53.084;18.206;2023-05-08T11:20:57;21.20;28.60
23395;DHT22;11870;53.084;18.206;2023-05-08T11:23:25;21.30;28.40
23395;DHT22;11870;53.084;18.206;2023-05-08T11:26:21;20.90;27.10
23395;DHT22;11870;53.084;18.206;2023-05-08T11:29:15;20.20;29.20
23395;DHT22;11870;53.084;18.206;2023-05-08T11:31:51;19.80;29.90
23395;DHT22;11870;53.084;18.206;2023-05-08T11:37:19;19.20;30.60
23395;DHT22;11870;53.084;18.206;2023-05-08T11:39:46;18.70;31.10
23395;DHT22;11870;53.084;18.206;2023-05-08T11:45:07;18.30;31.40
23395;DHT22;11870;53.084;18.206;2023-05-08T11:47:42;18.40;32.30
23395;DHT22;11870;53.084;18.206;2023-05-08T11:50:09;18.70;30.90
23395;DHT22;11870;53.084;18.206;2023-05-08T11:52:37;18.60;30.00
23395;DHT22;11870;53.084;18.206;2023-05-08T11:55:05;18.80;29.80
23395;DHT22;11870;53.084;18.206;2023-05-08T11:57:31;18.60;30.40
23395;DHT22;11870;53.084;18.206;2023-05-08T12:00:09;18.40;30.00
23395;DHT22;11870;53.084;18.206;2023-05-08T12:02:36;18.30;30.30
23395;DHT22;11870;53.084;18.206;2023-05-08T12:05:02;18.10;30.60
23395;DHT22;11870;53.084;18.206;2023-05-08T12:07:29;18.00;30.90
23395;DHT22;11870;53.084;18.206;2023-05-08T12:09:55;18.00;31.90
23395;DHT22;11870;53.084;18.206;2023-05-08T12:12:21;18.10;32.20
23395;DHT22;11870;53.084;18.206;2023-05-08T12:14:50;17.90;30.80
23395;DHT22;11870;53.084;18.206;2023-05-08T12:17:16;17.80;30.90
23395;DHT22;11870;53.084;18.206;2023-05-08T12:19:46;17.90;31.00
23395;DHT22;11870;53.084;18.206;2023-05-08T12:22:11;18.80;30.90
23395;DHT22;11870;53.084;18.206;2023-05-08T12:24:38;18.00;31.70
23395;DHT22;11870;53.084;18.206;2023-05-08T12:27:04;18.10;31.90
23395;DHT22;11870;53.084;18.206;2023-05-08T12:29:34;18.00;31.70
23395;DHT22;11870;53.084;18.206;2023-05-08T12:32:00;18.50;33.10
23395;DHT22;11870;53.084;18.206;2023-05-08T12:34:26;17.80;34.90
23395;DHT22;11870;53.084;18.206;2023-05-08T12:37:02;17.70;34.30
23395;DHT22;11870;53.084;18.206;2023-05-08T12:39:34;17.70;34.10
23395;DHT22;11870;53.084;18.206;2023-05-08T12:42:00;17.60;33.60
23395;DHT22;11870;53.084;18.206;2023-05-08T12:44:29;17.60;34.10
23395;DHT22;11870;53.084;18.206;2023-05-08T12:46:56;17.70;32.90
23395;DHT22;11870;53.084;18.206;2023-05-08T12:51:49;17.80;32.20
23395;DHT22;11870;53.084;18.206;2023-05-08T12:54:15;17.80;32.00
23395;DHT22;11870;53.084;18.206;2023-05-08T12:56:42;17.80;32.20
23395;DHT22;11870;53.084;18.206;2023-05-08T12:59:09;18.00;32.40
23395;DHT22;11870;53.084;18.206;2023-05-08T13:01:35;17.90;31.00
23395;DHT22;11870;53.084;18.206;2023-05-08T13:04:01;18.40;32.00
23395;DHT22;11870;53.084;18.206;2023-05-08T13:06:31;19.10;31.20
23395;DHT22;11870;53.084;18.206;2023-05-08T13:08:57;17.80;31.50
23395;DHT22;11870;53.084;18.206;2023-05-08T13:11:31;19.70;33.00
23395;DHT22;11870;53.084;18.206;2023-05-08T13:13:57;17.70;32.90
23395;DHT22;11870;53.084;18.206;2023-05-08T13:16:26;18.10;33.70
23395;DHT22;11870;53.084;18.206;2023-05-08T13:18:56;17.40;32.20
23395;DHT22;11870;53.084;18.206;2023-05-08T13:21:22;17.40;32.20
23395;DHT22;11870;53.084;18.206;2023-05-08T13:23:48;17.40;32.20
23395;DHT22;11870;53.084;18.206;2023-05-08T13:26:14;17.40;32.10
23395;DHT22;11870;53.084;18.206;2023-05-08T13:28:40;18.80;33.50
23395;DHT22;11870;53.084;18.206;2023-05-08T13:33:33;17.20;31.40
23395;DHT22;11870;53.084;18.206;2023-05-08T13:35:59;18.90;33.30
23395;DHT22;11870;53.084;18.206;2023-05-08T13:38:25;18.20;33.40
23395;DHT22;11870;53.084;18.206;2023-05-08T13:40:51;17.90;34.10
23395;DHT22;11870;53.084;18.206;2023-05-08T13:43:17;17.60;34.70
23395;DHT22;11870;53.084;18.206;2023-05-08T13:45:46;17.20;34.20
23395;DHT22;11870;53.084;18.206;2023-05-08T13:48:12;19.50;35.40
23395;DHT22;11870;53.084;18.206;2023-05-08T13:50:38;17.50;33.90
23395;DHT22;11870;53.084;18.206;2023-05-08T13:53:04;18.00;34.50
23395;DHT22;11870;53.084;18.206;2023-05-08T13:55:31;18.00;34.30
23395;DHT22;11870;53.084;18.206;2023-05-08T13:57:57;17.30;31.90
23395;DHT22;11870;53.084;18.206;2023-05-08T14:00:23;17.20;32.80
23395;DHT22;11870;53.084;18.206;2023-05-08T14:02:49;17.10;32.80
23395;DHT22;11870;53.084;18.206;2023-05-08T14:05:15;17.90;33.70
23395;DHT22;11870;53.084;18.206;2023-05-08T14:07:41;17.00;34.00
23395;DHT22;11870;53.084;18.206;2023-05-08T14:10:08;17.40;34.20
23395;DHT22;11870;53.084;18.206;2023-05-08T14:12:35;16.80;34.10
23395;DHT22;11870;53.084;18.206;2023-05-08T14:15:05;16.90;35.00
23395;DHT22;11870;53.084;18.206;2023-05-08T14:17:31;16.90;34.60
23395;DHT22;11870;53.084;18.206;2023-05-08T14:19:57;17.00;35.00
23395;DHT22;11870;53.084;18.206;2023-05-08T14:22:24;18.10;35.90
23395;DHT22;11870;53.084;18.206;2023-05-08T14:24:49;17.90;35.60
23395;DHT22;11870;53.084;18.206;2023-05-08T14:27:16;18.50;34.70
23395;DHT22;11870;53.084;18.206;2023-05-08T14:29:42;17.10;34.20
23395;DHT22;11870;53.084;18.206;2023-05-08T14:32:08;17.10;34.00
23395;DHT22;11870;53.084;18.206;2023-05-08T14:34:35;17.00;33.80
23395;DHT22;11870;53.084;18.206;2023-05-08T14:37:02;18.90;34.10
23395;DHT22;11870;53.084;18.206;2023-05-08T14:39:27;17.30;33.70
23395;DHT22;11870;53.084;18.206;2023-05-08T14:41:54;17.60;34.20
23395;DHT22;11870;53.084;18.206;2023-05-08T14:44:20;17.60;34.10
23395;DHT22;11870;53.084;18.206;2023-05-08T14:46:46;18.10;33.40
23395;DHT22;11870;53.084;18.206;2023-05-08T14:49:12;16.80;33.70
23395;DHT22;11870;53.084;18.206;2023-05-08T14:51:38;16.70;32.50
23395;DHT22;11870;53.084;18.206;2023-05-08T14:54:04;17.80;33.40
23395;DHT22;11870;53.084;18.206;2023-05-08T14:56:30;16.80;33.60
23395;DHT22;11870;53.084;18.206;2023-05-08T14:58:56;17.80;35.10
23395;DHT22;11870;53.084;18.206;2023-05-08T15:01:22;18.30;35.60
23395;DHT22;11870;53.084;18.206;2023-05-08T15:03:48;17.50;33.60
23395;DHT22;11870;53.084;18.206;2023-05-08T15:06:21;16.90;33.90
23395;DHT22;11870;53.084;18.206;2023-05-08T15:08:48;17.00;33.20
23395;DHT22;11870;53.084;18.206;2023-05-08T15:11:14;18.50;35.70
23395;DHT22;11870;53.084;18.206;2023-05-08T15:13:40;16.90;35.20
23395;DHT22;11870;53.084;18.206;2023-05-08T15:16:06;17.90;34.10
23395;DHT22;11870;53.084;18.206;2023-05-08T15:18:32;17.40;35.00
23395;DHT22;11870;53.084;18.206;2023-05-08T15:20:58;17.20;35.00
23395;DHT22;11870;53.084;18.206;2023-05-08T15:23:25;17.00;34.80
23395;DHT22;11870;53.084;18.206;2023-05-08T15:25:51;17.70;34.70
23395;DHT22;11870;53.084;18.206;2023-05-08T15:28:18;18.30;35.20
23395;DHT22;11870;53.084;18.206;2023-05-08T15:30:45;17.70;35.20
23395;DHT22;11870;53.084;18.206;2023-05-08T15:33:11;16.80;34.30
23395;DHT22;11870;53.084;18.206;2023-05-08T15:35:38;19.20;34.00
23395;DHT22;11870;53.084;18.206;2023-05-08T15:38:03;18.40;35.40
23395;DHT22;11870;53.084;18.206;2023-05-08T15:40:32;17.30;34.00
23395;DHT22;11870;53.084;18.206;2023-05-08T15:42:59;18.50;34.60
23395;DHT22;11870;53.084;18.206;2023-05-08T15:45:25;17.50;34.30
23395;DHT22;11870;53.084;18.206;2023-05-08T15:47:50;17.90;34.80
23395;DHT22;11870;53.084;18.206;2023-05-08T15:50:17;18.40;34.40
23395;DHT22;11870;53.084;18.206;2023-05-08T15:52:42;16.20;33.40
23395;DHT22;11870;53.084;18.206;2023-05-08T15:55:09;18.50;34.80
23395;DHT22;11870;53.084;18.206;2023-05-08T15:57:35;17.00;35.40
23395;DHT22;11870;53.084;18.206;2023-05-08T16:00:01;16.30;35.60
23395;DHT22;11870;53.084;18.206;2023-05-08T16:02:27;16.20;36.00
23395;DHT22;11870;53.084;18.206;2023-05-08T16:04:53;16.20;36.00
23395;DHT22;11870;53.084;18.206;2023-05-08T16:07:19;17.50;36.80
23395;DHT22;11870;53.084;18.206;2023-05-08T16:09:45;18.10;37.20
23395;DHT22;11870;53.084;18.206;2023-05-08T16:12:11;16.20;36.20
23395;DHT22;11870;53.084;18.206;2023-05-08T16:14:37;18.00;36.20
23395;DHT22;11870;53.084;18.206;2023-05-08T16:17:03;17.30;35.90
23395;DHT22;11870;53.084;18.206;2023-05-08T16:19:29;17.20;36.70
23395;DHT22;11870;53.084;18.206;2023-05-08T16:21:55;17.80;36.30
23395;DHT22;11870;53.084;18.206;2023-05-08T16:24:21;16.80;36.40
23395;DHT22;11870;53.084;18.206;2023-05-08T16:26:47;18.40;37.40
23395;DHT22;11870;53.084;18.206;2023-05-08T16:29:13;18.30;37.50
23395;DHT22;11870;53.084;18.206;2023-05-08T16:31:39;16.50;36.50
23395;DHT22;11870;53.084;18.206;2023-05-08T16:34:05;16.40;36.30
23395;DHT22;11870;53.084;18.206;2023-05-08T16:36:31;18.30;38.40
23395;DHT22;11870;53.084;18.206;2023-05-08T16:38:57;18.20;38.30